sensor_id;sensor_type;location;lat;lon;timestamp;temperature;humidity
38241;DHT22;24037;49.536;8.500;2023-11-21T00:01:59;8.50;99.90
38241;DHT22;24037;49.536;8.500;2023-11-21T00:04:26;8.50;99.90
38241;DHT22;24037;49.536;8.500;2023-11-21T00:06:54;8.60;99.90
38241;DHT22;24037;49.536;8.500;2023-11-21T00:09:20;8.60;99.90
38241;DHT22;24037;49.536;8.500;2023-11-21T00:11:46;8.50;99.90
38241;DHT22;24037;49.536;8.500;2023-11-21T00:14:12;8.50;99.90
38241;DHT22;24037;49.536;8.500;2023-11-21T00:16:41;8.60;99.90
38241;DHT22;24037;49.536;8.500;2023-11-21T00:19:07;8.50;99.90
38241;DHT22;24037;49.536;8.500;2023-11-21T00:21:33;8.60;99.90
38241;DHT22;24037;49.536;8.500;2023-11-21T00:24:00;8.60;99.90
38241;DHT22;24037;49.536;8.500;2023-11-21T00:26:26;8.60;99.90
38241;DHT22;24037;49.536;8.500;2023-11-21T00:29:01;8.60;99.90
38241;DHT22;24037;49.536;8.500;2023-11-21T00:31:27;8.60;99.90
38241;DHT22;24037;49.536;8.500;2023-11-21T00:33:53;8.60;99.90
38241;DHT22;24037;49.536;8.500;2023-11-21T00:36:21;8.60;99.90
38241;DHT22;24037;49.536;8.500;2023-11-21T00:38:47;8.50;99.90
38241;DHT22;24037;49.536;8.500;2023-11-21T00:41:14;8.50;99.90
38241;DHT22;24037;49.536;8.500;2023-11-21T00:43:40;8.50;99.90
38241;DHT22;24037;49.536;8.500;2023-11-21T00:46:06;8.50;99.90
38241;DHT22;24037;49.536;8.500;2023-11-21T00:48:35;8.60;99.90
38241;DHT22;24037;49.536;8.500;2023-11-21T00:51:01;8.50;99.90
38241;DHT22;24037;49.536;8.500;2023-11-21T00:53:27;8.60;99.90
38241;DHT22;24037;49.536;8.500;2023-11-21T00:55:54;8.60;99.90
38241;DHT22;24037;49.536;8.500;2023-11-21T00:58:25;8.50;99.90
38241;DHT22;24037;49.536;8.500;2023-11-21T01:00:52;8.50;99.90
38241;DHT22;24037;49.536;8.500;2023-11-21T01:03:18;8.60;99.90
38241;DHT22;24037;49.536;8.500;2023-11-21T01:05:45;8.50;99.90
38241;DHT22;24037;49.536;8.500;2023-11-21T01:08:11;8.50;99.90
38241;DHT22;24037;49.536;8.500;2023-11-21T01:10:38;8.60;99.90
38241;DHT22;24037;49.536;8.500;2023-11-21T01:13:04;8.50;99.90
38241;DHT22;24037;49.536;8.500;2023-11-21T01:15:31;8.50;99.90
38241;DHT22;24037;49.536;8.500;2023-11-21T01:17:57;8.50;99.90
38241;DHT22;24037;49.536;8.500;2023-11-21T01:20:23;8.50;99.90
38241;DHT22;24037;49.536;8.500;2023-11-21T01:22:49;8.60;99.90
38241;DHT22;24037;49.536;8.500;2023-11-21T01:25:16;8.50;99.90
38241;DHT22;24037;49.536;8.500;2023-11-21T01:27:43;8.60;99.90
38241;DHT22;24037;49.536;8.500;2023-11-21T01:30:09;8.50;99.90
38241;DHT22;24037;49.536;8.500;2023-11-21T01:32:39;8.50;99.90
38241;DHT22;24037;49.536;8.500;2023-11-21T01:35:05;8.60;99.90
38241;DHT22;24037;49.536;8.500;2023-11-21T01:37:37;8.50;99.90
38241;DHT22;24037;49.536;8.500;2023-11-21T01:40:04;8.60;99.90
38241;DHT22;24037;49.536;8.500;2023-11-21T01:42:34;8.60;99.90
38241;DHT22;24037;49.536;8.500;2023-11-21T01:45:01;8.60;99.90
38241;DHT22;24037;49.536;8.500;2023-11-21T01:47:32;8.60;99.90
38241;DHT22;24037;49.536;8.500;2023-11-21T01:49:59;8.60;99.90
38241;DHT22;24037;49.536;8.500;2023-11-21T01:52:26;8.60;99.90
38241;DHT22;24037;49.536;8.500;2023-11-21T01:54:54;8.60;99.90
38241;DHT22;24037;49.536;8.500;2023-11-21T01:57:21;8.60;99.90
38241;DHT22;24037;49.536;8.500;2023-11-21T01:59:48;8.60;99.90
38241;DHT22;24037;49.536;8.500;2023-11-21T02:02:15;8.60;99.90
38241;DHT22;24037;49.536;8.500;2023-11-21T02:04:42;8.60;99.90
38241;DHT22;24037;49.536;8.500;2023-11-21T02:07:08;8.60;99.90
38241;DHT22;24037;49.536;8.500;2023-11-21T02:09:35;8.70;99.90
38241;DHT22;24037;49.536;8.500;2023-11-21T02:12:04;8.70;99.90
38241;DHT22;24037;49.536;8.500;2023-11-21T02:14:31;8.70;99.90
38241;DHT22;24037;49.536;8.500;2023-11-21T02:16:57;8.70;99.90
38241;DHT22;24037;49.536;8.500;2023-11-21T02:19:24;8.70;99.90
38241;DHT22;24037;49.536;8.500;2023-11-21T02:21:52;8.70;99.90
38241;DHT22;24037;49.536;8.500;2023-11-21T02:24:20;8.70;99.90
38241;DHT22;24037;49.536;8.500;2023-11-21T02:26:48;8.70;99.90
38241;DHT22;24037;49.536;8.500;2023-11-21T02:29:20;8.70;99.90
38241;DHT22;24037;49.536;8.500;2023-11-21T02:31:54;8.70;99.90
38241;DHT22;24037;49.536;8.500;2023-11-21T02:34:22;8.70;99.90
38241;DHT22;24037;49.536;8.500;2023-11-21T02:36:48;8.70;99.90
38241;DHT22;24037;49.536;8.500;2023-11-21T02:39:18;8.70;99.90
38241;DHT22;24037;49.536;8.500;2023-11-21T02:41:44;8.70;99.90
38241;DHT22;24037;49.536;8.500;2023-11-21T02:44:10;8.70;99.90
38241;DHT22;24037;49.536;8.500;2023-11-21T02:46:37;8.70;99.90
38241;DHT22;24037;49.536;8.500;2023-11-21T02:49:06;8.70;99.90
38241;DHT22;24037;49.536;8.500;2023-11-21T02:51:33;8.70;99.90
38241;DHT22;24037;49.536;8.500;2023-11-21T02:54:00;8.70;99.90
38241;DHT22;24037;49.536;8.500;2023-11-21T02:56:28;8.70;99.90
38241;DHT22;24037;49.536;8.500;2023-11-21T02:59:00;8.70;99.90
38241;DHT22;24037;49.536;8.500;2023-11-21T03:01:27;8.70;99.90
38241;DHT22;24037;49.536;8.500;2023-11-21T03:03:53;8.70;99.90
38241;DHT22;24037;49.536;8.500;2023-11-21T03:06:21;8.70;99.90
38241;DHT22;24037;49.536;8.500;2023-11-21T03:08:47;8.60;99.90
38241;DHT22;24037;49.536;8.500;2023-11-21T03:11:14;8.60;99.90
38241;DHT22;24037;49.536;8.500;2023-11-21T03:13:41;8.60;99.90
38241;DHT22;24037;49.536;8.500;2023-11-21T03:16:10;8.60;99.90
38241;DHT22;24037;49.536;8.500;2023-11-21T03:18:40;8.60;99.90
38241;DHT22;24037;49.536;8.500;2023-11-21T03:21:07;8.70;99.90
38241;DHT22;24037;49.536;8.500;2023-11-21T03:23:36;8.60;99.90
38241;DHT22;24037;49.536;8.500;2023-11-21T03:26:03;8.60;99.90
38241;DHT22;24037;49.536;8.500;2023-11-21T03:28:30;8.60;99.90
38241;DHT22;24037;49.536;8.500;2023-11-21T03:30:57;8.70;99.90
38241;DHT22;24037;49.536;8.500;2023-11-21T03:33:23;8.70;99.90
38241;DHT22;24037;49.536;8.500;2023-11-21T03:35:51;8.70;99.90
38241;DHT22;24037;49.536;8.500;2023-11-21T03:38:19;8.70;99.90
38241;DHT22;24037;49.536;8.500;2023-11-21T03:40:45;8.70;99.90
38241;DHT22;24037;49.536;8.500;2023-11-21T03:43:11;8.70;99.90
38241;DHT22;24037;49.536;8.500;2023-11-21T03:45:38;8.70;99.90
38241;DHT22;24037;49.536;8.500;2023-11-21T03:48:07;8.70;99.90
38241;DHT22;24037;49.536;8.500;2023-11-21T03:50:35;8.70;99.90
38241;DHT22;24037;49.536;8.500;2023-11-21T03:53:01;8.80;99.90
38241;DHT22;24037;49.536;8.500;2023-11-21T03:55:28;8.70;99.90
38241;DHT22;24037;49.536;8.500;2023-11-21T03:57:54;8.70;99.90
38241;DHT22;24037;49.536;8.500;2023-11-21T04:00:21;8.70;99.90
38241;DHT22;24037;49.536;8.500;2023-11-21T04:02:48;8.80;99.90
38241;DHT22;24037;49.536;8.500;2023-11-21T04:05:14;8.80;99.90
38241;DHT22;24037;49.536;8.500;2023-11-21T04:07:40;8.80;99.90
38241;DHT22;24037;49.536;8.500;2023-11-21T04:10:07;8.70;99.90
38241;DHT22;24037;49.536;8.500;2023-11-21T04:12:35;8.70;99.90
38241;DHT22;24037;49.536;8.500;2023-11-21T04:15:02;8.80;99.90
38241;DHT22;24037;49.536;8.500;2023-11-21T04:17:29;8.70;99.90
38241;DHT22;24037;49.536;8.500;2023-11-21T04:19:55;8.70;99.90
38241;DHT22;24037;49.536;8.500;2023-11-21T04:22:21;8.70;99.90
38241;DHT22;24037;49.536;8.500;2023-11-21T04:24:47;8.70;99.90
38241;DHT22;24037;49.536;8.500;2023-11-21T04:27:15;8.70;99.90
38241;DHT22;24037;49.536;8.500;2023-11-21T04:29:44;8.70;99.90
38241;DHT22;24037;49.536;8.500;2023-11-21T04:32:12;8.70;99.90
38241;DHT22;24037;49.536;8.500;2023-11-21T04:34:38;8.70;99.90
38241;DHT22;24037;49.536;8.500;2023-11-21T04:37:04;8.70;99.90
38241;DHT22;24037;49.536;8.500;2023-11-21T04:39:32;8.70;99.90
38241;DHT22;24037;49.536;8.500;2023-11-21T04:41:58;8.70;99.90
38241;DHT22;24037;49.536;8.500;2023-11-21T04:44:24;8.70;99.90
38241;DHT22;24037;49.536;8.500;2023-11-21T04:46:50;8.80;99.90
38241;DHT22;24037;49.536;8.500;2023-11-21T04:49:16;8.70;99.90
38241;DHT22;24037;49.536;8.500;2023-11-21T04:51:43;8.80;99.90
38241;DHT22;24037;49.536;8.500;2023-11-21T04:54:09;8.80;99.90
38241;DHT22;24037;49.536;8.500;2023-11-21T04:56:35;8.80;99.90
38241;DHT22;24037;49.536;8.500;2023-11-21T04:59:01;8.80;99.90
38241;DHT22;24037;49.536;8.500;2023-11-21T05:01:27;8.80;99.90
38241;DHT22;24037;49.536;8.500;2023-11-21T05:03:53;8.80;99.90
38241;DHT22;24037;49.536;8.500;2023-11-21T05:06:20;8.80;99.90
38241;DHT22;24037;49.536;8.500;2023-11-21T05:08:46;8.80;99.90
38241;DHT22;24037;49.536;8.500;2023-11-21T05:11:26;8.70;99.90
38241;DHT22;24037;49.536;8.500;2023-11-21T05:13:53;8.80;99.90
38241;DHT22;24037;49.536;8.500;2023-11-21T05:16:19;8.70;99.90
38241;DHT22;24037;49.536;8.500;2023-11-21T05:18:46;8.80;99.90
38241;DHT22;24037;49.536;8.500;2023-11-21T05:21:12;8.80;99.90
38241;DHT22;24037;49.536;8.500;2023-11-21T05:23:38;8.80;99.90
38241;DHT22;24037;49.536;8.500;2023-11-21T05:26:04;8.80;99.90
38241;DHT22;24037;49.536;8.500;2023-11-21T05:28:31;8.80;99.90
38241;DHT22;24037;49.536;8.500;2023-11-21T05:30:57;8.80;99.90
38241;DHT22;24037;49.536;8.500;2023-11-21T05:33:23;8.80;99.90
38241;DHT22;24037;49.536;8.500;2023-11-21T05:35:51;8.80;99.90
38241;DHT22;24037;49.536;8.500;2023-11-21T05:38:17;8.80;99.90
38241;DHT22;24037;49.536;8.500;2023-11-21T05:40:43;8.80;99.90
38241;DHT22;24037;49.536;8.500;2023-11-21T05:43:10;8.80;99.90
38241;DHT22;24037;49.536;8.500;2023-11-21T05:45:36;8.80;99.90
38241;DHT22;24037;49.536;8.500;2023-11-21T05:48:03;8.80;99.90
38241;DHT22;24037;49.536;8.500;2023-11-21T05:50:30;8.70;99.90
38241;DHT22;24037;49.536;8.500;2023-11-21T05:52:56;8.70;99.90
38241;DHT22;24037;49.536;8.500;2023-11-21T05:55:25;8.70;99.90
38241;DHT22;24037;49.536;8.500;2023-11-21T05:57:52;8.70;99.90
38241;DHT22;24037;49.536;8.500;2023-11-21T06:00:18;8.70;99.90
38241;DHT22;24037;49.536;8.500;2023-11-21T06:02:49;8.70;99.90
38241;DHT22;24037;49.536;8.500;2023-11-21T06:05:17;8.70;99.90
38241;DHT22;24037;49.536;8.500;2023-11-21T06:07:44;8.70;99.90
38241;DHT22;24037;49.536;8.500;2023-11-21T06:10:11;8.70;99.90
38241;DHT22;24037;49.536;8.500;2023-11-21T06:12:40;8.70;99.90
38241;DHT22;24037;49.536;8.500;2023-11-21T06:15:09;8.70;99.90
38241;DHT22;24037;49.536;8.500;2023-11-21T06:17:40;8.70;99.90
38241;DHT22;24037;49.536;8.500;2023-11-21T06:20:07;8.70;99.90
38241;DHT22;24037;49.536;8.500;2023-11-21T06:22:41;8.60;99.90
38241;DHT22;24037;49.536;8.500;2023-11-21T06:25:09;8.60;99.90
38241;DHT22;24037;49.536;8.500;2023-11-21T06:27:41;8.60;99.90
38241;DHT22;24037;49.536;8.500;2023-11-21T06:30:08;8.60;99.90
38241;DHT22;24037;49.536;8.500;2023-11-21T06:32:38;8.60;99.90
38241;DHT22;24037;49.536;8.500;2023-11-21T06:35:06;8.60;99.90
38241;DHT22;24037;49.536;8.500;2023-11-21T06:37:33;8.60;99.90
38241;DHT22;24037;49.536;8.500;2023-11-21T06:39:59;8.60;99.90
38241;DHT22;24037;49.536;8.500;2023-11-21T06:42:26;8.50;99.90
38241;DHT22;24037;49.536;8.500;2023-11-21T06:44:53;8.50;99.90
38241;DHT22;24037;49.536;8.500;2023-11-21T06:47:24;8.60;99.90
38241;DHT22;24037;49.536;8.500;2023-11-21T06:49:55;8.50;99.90
38241;DHT22;24037;49.536;8.500;2023-11-21T06:52:21;8.50;99.90
38241;DHT22;24037;49.536;8.500;2023-11-21T06:54:48;8.50;99.90
38241;DHT22;24037;49.536;8.500;2023-11-21T06:57:17;8.50;99.90
38241;DHT22;24037;49.536;8.500;2023-11-21T06:59:44;8.50;99.90
38241;DHT22;24037;49.536;8.500;2023-11-21T07:02:10;8.50;99.90
38241;DHT22;24037;49.536;8.500;2023-11-21T07:04:37;8.50;99.90
38241;DHT22;24037;49.536;8.500;2023-11-21T07:07:04;8.50;99.90
38241;DHT22;24037;49.536;8.500;2023-11-21T07:09:30;8.50;99.90
38241;DHT22;24037;49.536;8.500;2023-11-21T07:11:57;8.50;99.90
38241;DHT22;24037;49.536;8.500;2023-11-21T07:14:23;8.50;99.90
38241;DHT22;24037;49.536;8.500;2023-11-21T07:16:49;8.50;99.90
38241;DHT22;24037;49.536;8.500;2023-11-21T07:19:15;8.50;99.90
38241;DHT22;24037;49.536;8.500;2023-11-21T07:21:42;8.50;99.90
38241;DHT22;24037;49.536;8.500;2023-11-21T07:24:08;8.50;99.90
38241;DHT22;24037;49.536;8.500;2023-11-21T07:26:35;8.60;99.90
38241;DHT22;24037;49.536;8.500;2023-11-21T07:29:02;8.60;99.90
38241;DHT22;24037;49.536;8.500;2023-11-21T07:31:29;8.60;99.90
38241;DHT22;24037;49.536;8.500;2023-11-21T07:33:55;8.60;99.90
38241;DHT22;24037;49.536;8.500;2023-11-21T07:36:25;8.60;99.90
38241;DHT22;24037;49.536;8.500;2023-11-21T07:38:51;8.60;99.90
38241;DHT22;24037;49.536;8.500;2023-11-21T07:41:18;8.60;99.90
38241;DHT22;24037;49.536;8.500;2023-11-21T07:43:45;8.60;99.90
38241;DHT22;24037;49.536;8.500;2023-11-21T07:46:12;8.60;99.90
38241;DHT22;24037;49.536;8.500;2023-11-21T07:48:42;8.60;99.90
38241;DHT22;24037;49.536;8.500;2023-11-21T07:51:08;8.60;99.90
38241;DHT22;24037;49.536;8.500;2023-11-21T07:53:36;8.60;99.90
38241;DHT22;24037;49.536;8.500;2023-11-21T07:56:04;8.60;99.90
38241;DHT22;24037;49.536;8.500;2023-11-21T07:58:30;8.60;99.90
38241;DHT22;24037;49.536;8.500;2023-11-21T08:00:57;8.60;99.90
38241;DHT22;24037;49.536;8.500;2023-11-21T08:03:23;8.60;99.90
38241;DHT22;24037;49.536;8.500;2023-11-21T08:05:49;8.50;99.90
38241;DHT22;24037;49.536;8.500;2023-11-21T08:08:15;8.60;99.90
38241;DHT22;24037;49.536;8.500;2023-11-21T08:10:47;8.50;99.90
38241;DHT22;24037;49.536;8.500;2023-11-21T08:13:14;8.50;99.90
38241;DHT22;24037;49.536;8.500;2023-11-21T08:15:43;8.60;99.90
38241;DHT22;24037;49.536;8.500;2023-11-21T08:18:12;8.60;99.90
38241;DHT22;24037;49.536;8.500;2023-11-21T08:20:40;8.60;99.90
38241;DHT22;24037;49.536;8.500;2023-11-21T08:23:07;8.50;99.90
38241;DHT22;24037;49.536;8.500;2023-11-21T08:25:33;8.60;99.90
38241;DHT22;24037;49.536;8.500;2023-11-21T08:28:01;8.60;99.90
38241;DHT22;24037;49.536;8.500;2023-11-21T08:30:27;8.60;99.90
38241;DHT22;24037;49.536;8.500;2023-11-21T08:32:56;8.60;99.90
38241;DHT22;24037;49.536;8.500;2023-11-21T08:35:24;8.60;99.90
38241;DHT22;24037;49.536;8.500;2023-11-21T08:37:53;8.70;99.90
38241;DHT22;24037;49.536;8.500;2023-11-21T08:40:21;8.70;99.90
38241;DHT22;24037;49.536;8.500;2023-11-21T08:42:47;8.70;99.90
38241;DHT22;24037;49.536;8.500;2023-11-21T08:45:14;8.60;99.90
38241;DHT22;24037;49.536;8.500;2023-11-21T08:47:41;8.70;99.90
38241;DHT22;24037;49.536;8.500;2023-11-21T08:50:10;8.70;99.90
38241;DHT22;24037;49.536;8.500;2023-11-21T08:52:38;8.60;99.90
38241;DHT22;24037;49.536;8.500;2023-11-21T08:55:05;8.70;99.90
38241;DHT22;24037;49.536;8.500;2023-11-21T08:57:35;8.70;99.90
38241;DHT22;24037;49.536;8.500;2023-11-21T09:00:06;8.70;99.90
38241;DHT22;24037;49.536;8.500;2023-11-21T09:02:33;8.70;99.90
38241;DHT22;24037;49.536;8.500;2023-11-21T09:05:00;8.70;99.90
38241;DHT22;24037;49.536;8.500;2023-11-21T09:07:29;8.70;99.90
38241;DHT22;24037;49.536;8.500;2023-11-21T09:09:56;8.70;99.90
38241;DHT22;24037;49.536;8.500;2023-11-21T09:12:22;8.70;99.90
38241;DHT22;24037;49.536;8.500;2023-11-21T09:14:51;8.70;99.90
38241;DHT22;24037;49.536;8.500;2023-11-21T09:17:17;8.70;99.90
38241;DHT22;24037;49.536;8.500;2023-11-21T09:19:43;8.70;99.90
38241;DHT22;24037;49.536;8.500;2023-11-21T09:22:11;8.70;99.90
38241;DHT22;24037;49.536;8.500;2023-11-21T09:24:37;8.80;99.90
38241;DHT22;24037;49.536;8.500;2023-11-21T09:27:04;8.70;99.90
38241;DHT22;24037;49.536;8.500;2023-11-21T09:29:31;8.80;99.90
38241;DHT22;24037;49.536;8.500;2023-11-21T09:31:57;8.80;99.90
38241;DHT22;24037;49.536;8.500;2023-11-21T09:34:27;8.80;99.90
38241;DHT22;24037;49.536;8.500;2023-11-21T09:36:53;8.80;99.90
38241;DHT22;24037;49.536;8.500;2023-11-21T09:39:20;8.90;99.90
38241;DHT22;24037;49.536;8.500;2023-11-21T09:41:59;8.80;99.90
38241;DHT22;24037;49.536;8.500;2023-11-21T09:44:54;8.90;99.90
38241;DHT22;24037;49.536;8.500;2023-11-21T09:47:24;8.80;99.90
38241;DHT22;24037;49.536;8.500;2023-11-21T09:49:54;8.90;99.90
38241;DHT22;24037;49.536;8.500;2023-11-21T09:52:27;8.90;99.90
38241;DHT22;24037;49.536;8.500;2023-11-21T09:54:54;8.90;99.90
38241;DHT22;24037;49.536;8.500;2023-11-21T09:57:24;8.90;99.90
38241;DHT22;24037;49.536;8.500;2023-11-21T09:59:54;9.00;99.90
38241;DHT22;24037;49.536;8.500;2023-11-21T10:02:27;9.00;99.90
38241;DHT22;24037;49.536;8.500;2023-11-21T10:04:56;9.00;99.90
38241;DHT22;24037;49.536;8.500;2023-11-21T10:07:23;9.00;99.90
38241;DHT22;24037;49.536;8.500;2023-11-21T10:09:51;9.10;99.90
38241;DHT22;24037;49.536;8.500;2023-11-21T10:12:20;9.10;99.90
38241;DHT22;24037;49.536;8.500;2023-11-21T10:14:52;9.10;99.90
38241;DHT22;24037;49.536;8.500;2023-11-21T10:17:20;9.20;99.90
38241;DHT22;24037;49.536;8.500;2023-11-21T10:19:53;9.20;99.90
38241;DHT22;24037;49.536;8.500;2023-11-21T10:22:20;9.20;99.90
38241;DHT22;24037;49.536;8.500;2023-11-21T10:24:47;9.20;99.90
38241;DHT22;24037;49.536;8.500;2023-11-21T10:27:13;9.20;99.90
38241;DHT22;24037;49.536;8.500;2023-11-21T10:29:39;9.20;99.90
38241;DHT22;24037;49.536;8.500;2023-11-21T10:32:06;9.20;99.90
38241;DHT22;24037;49.536;8.500;2023-11-21T10:34:33;9.10;99.90
38241;DHT22;24037;49.536;8.500;2023-11-21T10:37:13;9.00;99.90
38241;DHT22;24037;49.536;8.500;2023-11-21T10:39:41;9.10;99.90
38241;DHT22;24037;49.536;8.500;2023-11-21T10:42:10;9.10;99.90
38241;DHT22;24037;49.536;8.500;2023-11-21T10:44:36;9.10;99.90
38241;DHT22;24037;49.536;8.500;2023-11-21T10:47:02;9.00;99.90
38241;DHT22;24037;49.536;8.500;2023-11-21T10:49:29;9.00;99.90
38241;DHT22;24037;49.536;8.500;2023-11-21T10:51:56;9.00;99.90
38241;DHT22;24037;49.536;8.500;2023-11-21T10:54:26;9.00;99.90
38241;DHT22;24037;49.536;8.500;2023-11-21T10:57:00;9.00;99.90
38241;DHT22;24037;49.536;8.500;2023-11-21T10:59:29;9.10;99.90
38241;DHT22;24037;49.536;8.500;2023-11-21T11:01:58;9.10;99.90
38241;DHT22;24037;49.536;8.500;2023-11-21T11:04:27;9.10;99.90
38241;DHT22;24037;49.536;8.500;2023-11-21T11:07:02;9.00;99.90
38241;DHT22;24037;49.536;8.500;2023-11-21T11:09:31;9.00;99.90
38241;DHT22;24037;49.536;8.500;2023-11-21T11:12:01;9.10;99.90
38241;DHT22;24037;49.536;8.500;2023-11-21T11:14:28;9.10;99.90
38241;DHT22;24037;49.536;8.500;2023-11-21T11:16:55;9.10;99.90
38241;DHT22;24037;49.536;8.500;2023-11-21T11:19:26;9.10;99.90
38241;DHT22;24037;49.536;8.500;2023-11-21T11:25:36;9.10;99.90
38241;DHT22;24037;49.536;8.500;2023-11-21T11:28:07;9.10;99.90
38241;DHT22;24037;49.536;8.500;2023-11-21T11:36:18;9.10;99.90
38241;DHT22;24037;49.536;8.500;2023-11-21T11:38:46;9.10;99.90
38241;DHT22;24037;49.536;8.500;2023-11-21T11:41:25;9.20;99.90
38241;DHT22;24037;49.536;8.500;2023-11-21T11:43:56;9.20;99.90
38241;DHT22;24037;49.536;8.500;2023-11-21T11:46:42;9.20;99.90
38241;DHT22;24037;49.536;8.500;2023-11-21T11:49:23;9.30;99.90
38241;DHT22;24037;49.536;8.500;2023-11-21T11:54:55;9.50;99.90
38241;DHT22;24037;49.536;8.500;2023-11-21T11:57:24;9.40;99.90
38241;DHT22;24037;49.536;8.500;2023-11-21T12:02:45;9.50;99.90
38241;DHT22;24037;49.536;8.500;2023-11-21T12:05:17;9.60;99.90
38241;DHT22;24037;49.536;8.500;2023-11-21T12:07:53;9.70;99.90
38241;DHT22;24037;49.536;8.500;2023-11-21T12:10:27;9.70;99.90
38241;DHT22;24037;49.536;8.500;2023-11-21T12:12:57;9.70;99.90
38241;DHT22;24037;49.536;8.500;2023-11-21T12:15:25;9.80;99.90
38241;DHT22;24037;49.536;8.500;2023-11-21T12:17:52;10.00;99.90
38241;DHT22;24037;49.536;8.500;2023-11-21T12:20:21;10.10;80.40
38241;DHT22;24037;49.536;8.500;2023-11-21T12:22:54;10.00;29.20
38241;DHT22;24037;49.536;8.500;2023-11-21T12:25:22;10.10;9.50
38241;DHT22;24037;49.536;8.500;2023-11-21T12:27:50;10.10;4.90
38241;DHT22;24037;49.536;8.500;2023-11-21T12:30:29;10.10;4.50
38241;DHT22;24037;49.536;8.500;2023-11-21T12:32:59;10.10;10.40
38241;DHT22;24037;49.536;8.500;2023-11-21T12:35:28;10.10;31.50
38241;DHT22;24037;49.536;8.500;2023-11-21T12:37:56;10.20;26.90
38241;DHT22;24037;49.536;8.500;2023-11-21T12:40:25;10.30;66.40
38241;DHT22;24037;49.536;8.500;2023-11-21T12:42:53;10.30;25.70
38241;DHT22;24037;49.536;8.500;2023-11-21T12:45:21;10.30;1.00
38241;DHT22;24037;49.536;8.500;2023-11-21T12:47:50;10.20;1.00
38241;DHT22;24037;49.536;8.500;2023-11-21T12:50:23;10.20;1.00
38241;DHT22;24037;49.536;8.500;2023-11-21T12:52:52;10.30;1.00
38241;DHT22;24037;49.536;8.500;2023-11-21T12:55:21;10.20;1.00
38241;DHT22;24037;49.536;8.500;2023-11-21T12:57:56;10.30;1.00
38241;DHT22;24037;49.536;8.500;2023-11-21T13:00:36;10.30;1.00
38241;DHT22;24037;49.536;8.500;2023-11-21T13:03:06;10.30;1.00
38241;DHT22;24037;49.536;8.500;2023-11-21T13:05:34;10.30;1.00
38241;DHT22;24037;49.536;8.500;2023-11-21T13:08:03;10.30;1.00
38241;DHT22;24037;49.536;8.500;2023-11-21T13:10:31;10.30;1.00
38241;DHT22;24037;49.536;8.500;2023-11-21T13:12:58;10.30;1.00
38241;DHT22;24037;49.536;8.500;2023-11-21T13:15:29;10.30;1.00
38241;DHT22;24037;49.536;8.500;2023-11-21T13:17:57;10.30;1.00
38241;DHT22;24037;49.536;8.500;2023-11-21T13:20:24;10.40;1.00
38241;DHT22;24037;49.536;8.500;2023-11-21T13:22:53;10.40;1.00
38241;DHT22;24037;49.536;8.500;2023-11-21T13:25:27;10.40;1.00
38241;DHT22;24037;49.536;8.500;2023-11-21T13:27:54;10.40;1.00
38241;DHT22;24037;49.536;8.500;2023-11-21T13:30:21;10.40;1.00
38241;DHT22;24037;49.536;8.500;2023-11-21T13:32:53;10.50;1.00
38241;DHT22;24037;49.536;8.500;2023-11-21T13:35:19;10.40;1.00
38241;DHT22;24037;49.536;8.500;2023-11-21T13:37:57;10.40;1.00
38241;DHT22;24037;49.536;8.500;2023-11-21T13:40:26;10.50;1.00
38241;DHT22;24037;49.536;8.500;2023-11-21T13:42:54;10.50;1.00
38241;DHT22;24037;49.536;8.500;2023-11-21T13:45:21;10.50;1.00
38241;DHT22;24037;49.536;8.500;2023-11-21T13:47:50;10.60;1.00
38241;DHT22;24037;49.536;8.500;2023-11-21T13:50:25;10.60;1.00
38241;DHT22;24037;49.536;8.500;2023-11-21T13:53:02;10.60;1.00
38241;DHT22;24037;49.536;8.500;2023-11-21T13:55:34;10.60;1.00
38241;DHT22;24037;49.536;8.500;2023-11-21T13:58:01;10.50;99.90
38241;DHT22;24037;49.536;8.500;2023-11-21T14:00:29;10.60;1.00
38241;DHT22;24037;49.536;8.500;2023-11-21T14:03:13;10.60;1.00
38241;DHT22;24037;49.536;8.500;2023-11-21T14:05:46;10.50;1.00
38241;DHT22;24037;49.536;8.500;2023-11-21T14:08:20;10.50;1.00
38241;DHT22;24037;49.536;8.500;2023-11-21T14:10:47;10.50;1.00
38241;DHT22;24037;49.536;8.500;2023-11-21T14:13:17;10.50;1.00
38241;DHT22;24037;49.536;8.500;2023-11-21T14:15:44;10.50;1.00
38241;DHT22;24037;49.536;8.500;2023-11-21T14:18:12;10.50;1.00
38241;DHT22;24037;49.536;8.500;2023-11-21T14:20:40;10.50;1.00
38241;DHT22;24037;49.536;8.500;2023-11-21T14:23:07;10.50;1.00
38241;DHT22;24037;49.536;8.500;2023-11-21T14:25:34;10.40;1.00
38241;DHT22;24037;49.536;8.500;2023-11-21T14:28:03;10.40;1.00
38241;DHT22;24037;49.536;8.500;2023-11-21T14:30:30;10.40;1.00
38241;DHT22;24037;49.536;8.500;2023-11-21T14:32:59;10.40;1.00
38241;DHT22;24037;49.536;8.500;2023-11-21T14:35:26;10.30;1.00
38241;DHT22;24037;49.536;8.500;2023-11-21T14:37:53;10.30;1.00
38241;DHT22;24037;49.536;8.500;2023-11-21T14:40:21;10.30;1.00
38241;DHT22;24037;49.536;8.500;2023-11-21T14:42:50;10.30;1.00
38241;DHT22;24037;49.536;8.500;2023-11-21T14:45:19;10.30;1.00
38241;DHT22;24037;49.536;8.500;2023-11-21T14:47:46;10.20;1.00
38241;DHT22;24037;49.536;8.500;2023-11-21T14:50:22;10.20;1.00
38241;DHT22;24037;49.536;8.500;2023-11-21T14:53:11;10.20;1.00
38241;DHT22;24037;49.536;8.500;2023-11-21T14:55:39;10.20;1.00
38241;DHT22;24037;49.536;8.500;2023-11-21T14:58:22;10.20;1.00
38241;DHT22;24037;49.536;8.500;2023-11-21T15:00:58;10.10;1.00
38241;DHT22;24037;49.536;8.500;2023-11-21T15:03:27;10.10;1.00
38241;DHT22;24037;49.536;8.500;2023-11-21T15:06:00;10.10;1.00
38241;DHT22;24037;49.536;8.500;2023-11-21T15:08:52;10.10;1.00
38241;DHT22;24037;49.536;8.500;2023-11-21T15:11:41;10.00;1.00
38241;DHT22;24037;49.536;8.500;2023-11-21T15:14:08;10.00;1.00
38241;DHT22;24037;49.536;8.500;2023-11-21T15:16:35;10.00;1.00
38241;DHT22;24037;49.536;8.500;2023-11-21T15:19:11;10.00;1.00
38241;DHT22;24037;49.536;8.500;2023-11-21T15:21:46;9.90;1.00
38241;DHT22;24037;49.536;8.500;2023-11-21T15:24:13;9.90;1.00
38241;DHT22;24037;49.536;8.500;2023-11-21T15:26:39;9.90;1.00
38241;DHT22;24037;49.536;8.500;2023-11-21T15:29:05;9.80;1.00
38241;DHT22;24037;49.536;8.500;2023-11-21T15:31:31;9.80;1.00
38241;DHT22;24037;49.536;8.500;2023-11-21T15:33:58;9.80;1.00
38241;DHT22;24037;49.536;8.500;2023-11-21T15:36:26;9.70;1.00
38241;DHT22;24037;49.536;8.500;2023-11-21T15:38:53;9.70;1.00
38241;DHT22;24037;49.536;8.500;2023-11-21T15:41:20;9.70;1.00
38241;DHT22;24037;49.536;8.500;2023-11-21T15:43:47;9.60;1.00
38241;DHT22;24037;49.536;8.500;2023-11-21T15:46:15;9.60;1.00
38241;DHT22;24037;49.536;8.500;2023-11-21T15:48:42;9.60;1.00
38241;DHT22;24037;49.536;8.500;2023-11-21T15:51:16;9.60;1.00
38241;DHT22;24037;49.536;8.500;2023-11-21T15:53:42;9.50;1.00
38241;DHT22;24037;49.536;8.500;2023-11-21T15:56:09;9.50;1.00
38241;DHT22;24037;49.536;8.500;2023-11-21T15:58:41;9.50;1.00
38241;DHT22;24037;49.536;8.500;2023-11-21T16:01:12;9.40;1.00
38241;DHT22;24037;49.536;8.500;2023-11-21T16:03:39;9.40;1.00
38241;DHT22;24037;49.536;8.500;2023-11-21T16:06:06;9.40;1.00
38241;DHT22;24037;49.536;8.500;2023-11-21T16:08:36;9.40;1.00
38241;DHT22;24037;49.536;8.500;2023-11-21T16:11:02;9.30;1.00